sensor_id;sensor_type;location;lat;lon;timestamp;P1;P2;P0
34176;PMS7003;20450;49.074;9.158;2024-02-14T00:01:04;16.25;16.00;12.25
34176;PMS7003;20450;49.074;9.158;2024-02-14T00:03:32;14.75;12.50;10.50
34176;PMS7003;20450;49.074;9.158;2024-02-14T00:05:59;15.50;14.75;12.75
34176;PMS7003;20450;49.074;9.158;2024-02-14T00:08:26;12.50;11.75;10.50
34176;PMS7003;20450;49.074;9.158;2024-02-14T00:10:53;13.25;13.25;11.00
34176;PMS7003;20450;49.074;9.158;2024-02-14T00:13:20;14.25;14.25;12.00
34176;PMS7003;20450;49.074;9.158;2024-02-14T00:15:47;19.50;19.50;16.00
34176;PMS7003;20450;49.074;9.158;2024-02-14T00:18:14;19.50;17.25;13.00
34176;PMS7003;20450;49.074;9.158;2024-02-14T00:20:42;17.00;12.75;11.00
34176;PMS7003;20450;49.074;9.158;2024-02-14T00:23:09;20.75;19.00;15.50
34176;PMS7003;20450;49.074;9.158;2024-02-14T00:25:37;16.75;15.50;13.00
34176;PMS7003;20450;49.074;9.158;2024-02-14T00:28:04;16.25;14.25;11.25
34176;PMS7003;20450;49.074;9.158;2024-02-14T00:30:32;13.00;13.00;9.75
34176;PMS7003;20450;49.074;9.158;2024-02-14T00:33:16;12.50;12.50;10.25
34176;PMS7003;20450;49.074;9.158;2024-02-14T00:35:45;11.75;11.75;10.25
34176;PMS7003;20450;49.074;9.158;2024-02-14T00:38:12;11.50;11.50;10.00
34176;PMS7003;20450;49.074;9.158;2024-02-14T00:40:40;12.75;12.75;11.00
34176;PMS7003;20450;49.074;9.158;2024-02-14T00:43:07;9.25;9.25;6.00
34176;PMS7003;20450;49.074;9.158;2024-02-14T00:45:33;13.25;13.00;10.50
34176;PMS7003;20450;49.074;9.158;2024-02-14T00:48:01;18.00;16.50;12.75
34176;PMS7003;20450;49.074;9.158;2024-02-14T00:50:29;16.50;15.00;12.00
34176;PMS7003;20450;49.074;9.158;2024-02-14T00:52:57;15.75;15.75;12.00
34176;PMS7003;20450;49.074;9.158;2024-02-14T00:55:24;13.00;13.00;11.00
34176;PMS7003;20450;49.074;9.158;2024-02-14T00:57:51;16.00;16.00;12.75
34176;PMS7003;20450;49.074;9.158;2024-02-14T01:00:18;18.50;14.00;12.25
34176;PMS7003;20450;49.074;9.158;2024-02-14T01:02:45;11.50;9.50;9.00
34176;PMS7003;20450;49.074;9.158;2024-02-14T01:05:12;25.00;25.00;19.25
34176;PMS7003;20450;49.074;9.158;2024-02-14T01:07:39;16.25;13.75;12.50
34176;PMS7003;20450;49.074;9.158;2024-02-14T01:10:08;14.75;13.25;12.25
34176;PMS7003;20450;49.074;9.158;2024-02-14T01:12:35;18.75;16.25;12.75
34176;PMS7003;20450;49.074;9.158;2024-02-14T01:15:03;17.25;16.00;12.50
34176;PMS7003;20450;49.074;9.158;2024-02-14T01:17:33;16.25;13.75;11.25
34176;PMS7003;20450;49.074;9.158;2024-02-14T01:20:00;13.75;13.75;10.25
34176;PMS7003;20450;49.074;9.158;2024-02-14T01:22:28;13.75;12.75;10.25
34176;PMS7003;20450;49.074;9.158;2024-02-14T01:25:03;16.25;15.25;11.50
34176;PMS7003;20450;49.074;9.158;2024-02-14T01:27:33;13.25;13.25;10.50
34176;PMS7003;20450;49.074;9.158;2024-02-14T01:30:00;14.25;14.25;11.25
34176;PMS7003;20450;49.074;9.158;2024-02-14T01:32:29;14.50;13.00;10.00
34176;PMS7003;20450;49.074;9.158;2024-02-14T01:34:56;10.25;9.00;9.00
34176;PMS7003;20450;49.074;9.158;2024-02-14T01:37:24;15.50;12.50;10.50
34176;PMS7003;20450;49.074;9.158;2024-02-14T01:39:50;12.50;11.75;10.00
34176;PMS7003;20450;49.074;9.158;2024-02-14T01:42:17;14.25;14.25;11.75
34176;PMS7003;20450;49.074;9.158;2024-02-14T01:44:46;11.50;10.50;8.75
34176;PMS7003;20450;49.074;9.158;2024-02-14T01:47:13;11.00;11.00;10.00
34176;PMS7003;20450;49.074;9.158;2024-02-14T01:49:40;14.50;14.50;11.00
34176;PMS7003;20450;49.074;9.158;2024-02-14T01:52:08;13.25;10.75;9.25
34176;PMS7003;20450;49.074;9.158;2024-02-14T01:54:34;14.25;12.25;9.50
34176;PMS7003;20450;49.074;9.158;2024-02-14T01:57:02;12.00;12.00;10.75
34176;PMS7003;20450;49.074;9.158;2024-02-14T01:59:31;14.75;13.25;10.50
34176;PMS7003;20450;49.074;9.158;2024-02-14T02:02:01;13.75;12.25;11.00
34176;PMS7003;20450;49.074;9.158;2024-02-14T02:04:28;11.75;11.25;8.50
34176;PMS7003;20450;49.074;9.158;2024-02-14T02:06:55;12.50;11.00;9.75
34176;PMS7003;20450;49.074;9.158;2024-02-14T02:09:22;11.50;11.25;9.75
34176;PMS7003;20450;49.074;9.158;2024-02-14T02:11:50;10.50;10.25;7.00
34176;PMS7003;20450;49.074;9.158;2024-02-14T02:14:38;10.00;10.00;8.75
34176;PMS7003;20450;49.074;9.158;2024-02-14T02:17:26;12.50;11.25;9.00
34176;PMS7003;20450;49.074;9.158;2024-02-14T02:20:13;9.75;9.75;7.50
34176;PMS7003;20450;49.074;9.158;2024-02-14T02:22:46;10.75;10.75;7.75
34176;PMS7003;20450;49.074;9.158;2024-02-14T02:25:33;11.25;10.00;9.00
34176;PMS7003;20450;49.074;9.158;2024-02-14T02:28:15;12.00;12.00;10.00
34176;PMS7003;20450;49.074;9.158;2024-02-14T02:30:45;9.75;9.75;8.50
34176;PMS7003;20450;49.074;9.158;2024-02-14T02:33:12;12.75;11.75;9.50
34176;PMS7003;20450;49.074;9.158;2024-02-14T02:35:41;10.50;10.50;9.25
34176;PMS7003;20450;49.074;9.158;2024-02-14T02:38:30;8.50;8.50;7.50
34176;PMS7003;20450;49.074;9.158;2024-02-14T02:41:17;11.50;10.00;8.75
34176;PMS7003;20450;49.074;9.158;2024-02-14T02:44:04;10.75;10.00;7.50
34176;PMS7003;20450;49.074;9.158;2024-02-14T02:47:03;11.00;9.75;8.75
34176;PMS7003;20450;49.074;9.158;2024-02-14T02:49:50;13.00;12.00;9.50
34176;PMS7003;20450;49.074;9.158;2024-02-14T02:52:37;9.00;8.50;7.25
34176;PMS7003;20450;49.074;9.158;2024-02-14T02:55:25;12.75;11.00;9.25
34176;PMS7003;20450;49.074;9.158;2024-02-14T02:57:59;9.75;9.75;9.00
34176;PMS7003;20450;49.074;9.158;2024-02-14T03:00:29;7.75;7.50;6.00
34176;PMS7003;20450;49.074;9.158;2024-02-14T03:03:11;11.25;11.25;9.00
34176;PMS7003;20450;49.074;9.158;2024-02-14T03:05:56;9.50;9.50;7.50
34176;PMS7003;20450;49.074;9.158;2024-02-14T03:08:43;11.75;10.00;6.00
34176;PMS7003;20450;49.074;9.158;2024-02-14T03:11:31;9.00;7.75;7.00
34176;PMS7003;20450;49.074;9.158;2024-02-14T03:14:18;10.75;10.75;8.50
34176;PMS7003;20450;49.074;9.158;2024-02-14T03:17:05;8.25;7.25;6.25
34176;PMS7003;20450;49.074;9.158;2024-02-14T03:19:32;8.75;8.25;7.00
34176;PMS7003;20450;49.074;9.158;2024-02-14T03:21:59;8.00;8.00;6.50
34176;PMS7003;20450;49.074;9.158;2024-02-14T03:24:26;7.00;6.00;3.75
34176;PMS7003;20450;49.074;9.158;2024-02-14T03:26:54;10.50;9.50;7.00
34176;PMS7003;20450;49.074;9.158;2024-02-14T03:29:21;10.00;8.00;7.00
34176;PMS7003;20450;49.074;9.158;2024-02-14T03:31:48;7.25;7.25;6.00
34176;PMS7003;20450;49.074;9.158;2024-02-14T03:34:15;13.00;12.00;9.00
34176;PMS7003;20450;49.074;9.158;2024-02-14T03:36:42;8.00;6.75;5.25
34176;PMS7003;20450;49.074;9.158;2024-02-14T03:39:09;14.25;10.50;9.50
34176;PMS7003;20450;49.074;9.158;2024-02-14T03:41:36;11.25;10.00;7.50
34176;PMS7003;20450;49.074;9.158;2024-02-14T03:44:05;11.00;10.75;9.75
34176;PMS7003;20450;49.074;9.158;2024-02-14T03:46:32;12.75;11.75;10.00
34176;PMS7003;20450;49.074;9.158;2024-02-14T03:48:59;11.25;10.00;7.75
34176;PMS7003;20450;49.074;9.158;2024-02-14T03:51:26;12.75;12.75;11.00
34176;PMS7003;20450;49.074;9.158;2024-02-14T03:53:53;8.75;8.75;6.50
34176;PMS7003;20450;49.074;9.158;2024-02-14T03:56:20;13.00;10.50;9.00
34176;PMS7003;20450;49.074;9.158;2024-02-14T03:58:47;5.75;5.75;5.00
34176;PMS7003;20450;49.074;9.158;2024-02-14T04:01:17;11.50;11.00;9.00
34176;PMS7003;20450;49.074;9.158;2024-02-14T04:03:44;13.50;13.50;11.00
34176;PMS7003;20450;49.074;9.158;2024-02-14T04:06:13;10.75;10.50;9.50
34176;PMS7003;20450;49.074;9.158;2024-02-14T04:08:43;14.00;13.00;10.00
34176;PMS7003;20450;49.074;9.158;2024-02-14T04:11:11;12.50;12.00;9.50
34176;PMS7003;20450;49.074;9.158;2024-02-14T04:13:38;11.00;11.00;9.25
34176;PMS7003;20450;49.074;9.158;2024-02-14T04:16:05;13.25;11.50;9.00
34176;PMS7003;20450;49.074;9.158;2024-02-14T04:18:42;13.50;12.50;9.00
34176;PMS7003;20450;49.074;9.158;2024-02-14T04:21:09;10.50;10.50;8.50
34176;PMS7003;20450;49.074;9.158;2024-02-14T04:23:36;9.00;8.50;7.00
34176;PMS7003;20450;49.074;9.158;2024-02-14T04:26:03;10.50;10.50;7.50
34176;PMS7003;20450;49.074;9.158;2024-02-14T04:28:30;10.25;10.25;9.25
34176;PMS7003;20450;49.074;9.158;2024-02-14T04:30:57;12.25;12.25;11.00
34176;PMS7003;20450;49.074;9.158;2024-02-14T04:33:30;9.75;9.75;7.50
34176;PMS7003;20450;49.074;9.158;2024-02-14T04:35:59;6.50;6.50;6.00
34176;PMS7003;20450;49.074;9.158;2024-02-14T04:38:26;5.75;5.00;4.00
34176;PMS7003;20450;49.074;9.158;2024-02-14T04:40:53;11.75;8.75;7.00
34176;PMS7003;20450;49.074;9.158;2024-02-14T04:43:20;9.50;9.50;7.25
34176;PMS7003;20450;49.074;9.158;2024-02-14T04:45:46;9.50;9.50;8.00
34176;PMS7003;20450;49.074;9.158;2024-02-14T04:48:14;11.75;11.50;8.75
34176;PMS7003;20450;49.074;9.158;2024-02-14T04:50:41;8.75;8.75;6.25
34176;PMS7003;20450;49.074;9.158;2024-02-14T04:53:11;12.00;8.75;7.25
34176;PMS7003;20450;49.074;9.158;2024-02-14T04:55:37;14.75;9.75;7.00
34176;PMS7003;20450;49.074;9.158;2024-02-14T04:58:05;10.50;10.50;7.25
34176;PMS7003;20450;49.074;9.158;2024-02-14T05:00:31;9.50;8.00;6.00
34176;PMS7003;20450;49.074;9.158;2024-02-14T05:02:59;6.75;5.75;5.25
34176;PMS7003;20450;49.074;9.158;2024-02-14T05:05:26;7.00;7.00;6.00
34176;PMS7003;20450;49.074;9.158;2024-02-14T05:07:57;9.25;8.50;6.00
34176;PMS7003;20450;49.074;9.158;2024-02-14T05:10:25;8.25;6.00;5.00
34176;PMS7003;20450;49.074;9.158;2024-02-14T05:12:52;10.50;9.50;6.75
34176;PMS7003;20450;49.074;9.158;2024-02-14T05:15:19;9.75;9.75;7.25
34176;PMS7003;20450;49.074;9.158;2024-02-14T05:17:46;7.50;7.50;5.75
34176;PMS7003;20450;49.074;9.158;2024-02-14T05:20:13;6.00;6.00;5.00
34176;PMS7003;20450;49.074;9.158;2024-02-14T05:22:40;0.75;0.75;0.00
34176;PMS7003;20450;49.074;9.158;2024-02-14T05:25:08;7.50;6.00;5.00
34176;PMS7003;20450;49.074;9.158;2024-02-14T05:27:51;6.25;5.00;4.25
34176;PMS7003;20450;49.074;9.158;2024-02-14T05:30:19;13.25;11.00;9.00
34176;PMS7003;20450;49.074;9.158;2024-02-14T05:32:50;6.25;6.00;4.75
34176;PMS7003;20450;49.074;9.158;2024-02-14T05:35:18;8.50;8.50;6.00
34176;PMS7003;20450;49.074;9.158;2024-02-14T05:37:44;4.00;4.00;4.00
34176;PMS7003;20450;49.074;9.158;2024-02-14T05:40:12;7.00;7.00;6.25
34176;PMS7003;20450;49.074;9.158;2024-02-14T05:42:39;5.50;5.50;5.00
34176;PMS7003;20450;49.074;9.158;2024-02-14T05:45:08;5.50;5.50;4.00
34176;PMS7003;20450;49.074;9.158;2024-02-14T05:47:35;6.25;5.25;4.25
34176;PMS7003;20450;49.074;9.158;2024-02-14T05:50:03;6.75;6.75;5.75
34176;PMS7003;20450;49.074;9.158;2024-02-14T05:52:32;8.50;5.50;4.00
34176;PMS7003;20450;49.074;9.158;2024-02-14T05:54:59;6.00;6.00;5.25
34176;PMS7003;20450;49.074;9.158;2024-02-14T05:57:26;6.50;6.50;6.00
34176;PMS7003;20450;49.074;9.158;2024-02-14T05:59:53;4.75;4.75;4.00
34176;PMS7003;20450;49.074;9.158;2024-02-14T06:02:24;6.00;6.00;5.00
34176;PMS7003;20450;49.074;9.158;2024-02-14T06:04:51;7.25;5.00;4.75
34176;PMS7003;20450;49.074;9.158;2024-02-14T06:07:18;3.50;3.50;3.00
34176;PMS7003;20450;49.074;9.158;2024-02-14T06:09:45;6.00;6.00;5.00
34176;PMS7003;20450;49.074;9.158;2024-02-14T06:12:14;4.00;4.00;4.00
34176;PMS7003;20450;49.074;9.158;2024-02-14T06:14:41;3.00;3.00;3.00
34176;PMS7003;20450;49.074;9.158;2024-02-14T06:17:08;5.50;5.50;5.00
34176;PMS7003;20450;49.074;9.158;2024-02-14T06:19:38;6.25;6.25;5.00
34176;PMS7003;20450;49.074;9.158;2024-02-14T06:22:14;8.50;6.00;4.50
34176;PMS7003;20450;49.074;9.158;2024-02-14T06:24:41;6.00;6.00;5.00
34176;PMS7003;20450;49.074;9.158;2024-02-14T06:27:08;8.25;7.00;5.00
34176;PMS7003;20450;49.074;9.158;2024-02-14T06:29:35;7.00;3.50;3.00
34176;PMS7003;20450;49.074;9.158;2024-02-14T06:32:02;5.00;5.00;4.00
34176;PMS7003;20450;49.074;9.158;2024-02-14T06:34:30;9.75;7.50;5.00
34176;PMS7003;20450;49.074;9.158;2024-02-14T06:36:58;4.00;4.00;4.00
34176;PMS7003;20450;49.074;9.158;2024-02-14T06:39:25;6.00;6.00;5.00
34176;PMS7003;20450;49.074;9.158;2024-02-14T06:41:52;5.00;5.00;4.25
34176;PMS7003;20450;49.074;9.158;2024-02-14T06:44:19;6.25;5.75;5.00
34176;PMS7003;20450;49.074;9.158;2024-02-14T06:46:47;6.00;6.00;5.00
34176;PMS7003;20450;49.074;9.158;2024-02-14T06:49:15;7.25;6.25;5.25
34176;PMS7003;20450;49.074;9.158;2024-02-14T06:51:42;7.00;7.00;5.75
34176;PMS7003;20450;49.074;9.158;2024-02-14T06:54:11;7.00;7.00;5.50
34176;PMS7003;20450;49.074;9.158;2024-02-14T06:56:38;8.25;8.25;6.25
34176;PMS7003;20450;49.074;9.158;2024-02-14T06:59:05;7.00;7.00;6.00
34176;PMS7003;20450;49.074;9.158;2024-02-14T07:01:32;9.00;8.00;6.00
34176;PMS7003;20450;49.074;9.158;2024-02-14T07:03:59;7.00;5.25;5.00
34176;PMS7003;20450;49.074;9.158;2024-02-14T07:06:26;5.75;5.75;5.00
34176;PMS7003;20450;49.074;9.158;2024-02-14T07:08:53;6.25;6.25;5.75
34176;PMS7003;20450;49.074;9.158;2024-02-14T07:11:22;7.00;7.00;5.75
34176;PMS7003;20450;49.074;9.158;2024-02-14T07:13:49;7.00;7.00;6.00
34176;PMS7003;20450;49.074;9.158;2024-02-14T07:16:16;7.00;5.75;4.75
34176;PMS7003;20450;49.074;9.158;2024-02-14T07:18:43;7.00;7.00;5.25
34176;PMS7003;20450;49.074;9.158;2024-02-14T07:21:11;8.75;7.25;6.50
34176;PMS7003;20450;49.074;9.158;2024-02-14T07:23:39;4.00;4.00;3.00
34176;PMS7003;20450;49.074;9.158;2024-02-14T07:26:06;4.00;4.00;3.00
34176;PMS7003;20450;49.074;9.158;2024-02-14T07:28:34;7.00;6.00;5.00
34176;PMS7003;20450;49.074;9.158;2024-02-14T07:31:04;3.00;3.00;3.00
34176;PMS7003;20450;49.074;9.158;2024-02-14T07:33:31;6.25;6.25;5.25
34176;PMS7003;20450;49.074;9.158;2024-02-14T07:35:58;4.00;1.00;1.00
34176;PMS7003;20450;49.074;9.158;2024-02-14T07:38:25;8.50;7.00;6.00
34176;PMS7003;20450;49.074;9.158;2024-02-14T07:40:52;7.50;6.00;4.00
34176;PMS7003;20450;49.074;9.158;2024-02-14T07:43:23;6.75;6.75;4.00
34176;PMS7003;20450;49.074;9.158;2024-02-14T07:45:51;9.75;6.00;5.50
34176;PMS7003;20450;49.074;9.158;2024-02-14T07:48:18;8.00;5.50;3.75
34176;PMS7003;20450;49.074;9.158;2024-02-14T07:50:45;6.75;6.75;4.00
34176;PMS7003;20450;49.074;9.158;2024-02-14T07:53:13;6.00;6.00;4.00
34176;PMS7003;20450;49.074;9.158;2024-02-14T07:55:40;3.75;3.75;3.25
34176;PMS7003;20450;49.074;9.158;2024-02-14T07:58:08;5.50;4.00;3.75
34176;PMS7003;20450;49.074;9.158;2024-02-14T08:00:35;3.00;3.00;1.50
34176;PMS7003;20450;49.074;9.158;2024-02-14T08:03:04;5.50;4.00;3.25
34176;PMS7003;20450;49.074;9.158;2024-02-14T08:05:31;3.00;3.00;3.00
34176;PMS7003;20450;49.074;9.158;2024-02-14T08:07:58;3.00;3.00;3.00
34176;PMS7003;20450;49.074;9.158;2024-02-14T08:10:25;3.25;3.25;3.00
34176;PMS7003;20450;49.074;9.158;2024-02-14T08:12:53;0.75;0.75;0.50
34176;PMS7003;20450;49.074;9.158;2024-02-14T08:15:20;3.50;3.50;3.50
34176;PMS7003;20450;49.074;9.158;2024-02-14T08:17:47;4.00;3.00;3.00
34176;PMS7003;20450;49.074;9.158;2024-02-14T08:20:16;3.25;0.00;0.00
34176;PMS7003;20450;49.074;9.158;2024-02-14T08:22:52;4.00;4.00;3.00
34176;PMS7003;20450;49.074;9.158;2024-02-14T08:25:19;3.25;3.25;3.00
34176;PMS7003;20450;49.074;9.158;2024-02-14T08:27:46;3.50;1.50;1.00
34176;PMS7003;20450;49.074;9.158;2024-02-14T08:30:13;3.00;3.00;3.00
34176;PMS7003;20450;49.074;9.158;2024-02-14T08:32:43;3.00;3.00;1.50
34176;PMS7003;20450;49.074;9.158;2024-02-14T08:35:10;7.50;5.75;4.75
34176;PMS7003;20450;49.074;9.158;2024-02-14T08:37:39;7.00;6.00;5.00
34176;PMS7003;20450;49.074;9.158;2024-02-14T08:40:07;6.25;6.00;5.00
34176;PMS7003;20450;49.074;9.158;2024-02-14T08:42:34;3.25;3.25;2.50
34176;PMS7003;20450;49.074;9.158;2024-02-14T08:45:04;6.25;5.50;5.00
34176;PMS7003;20450;49.074;9.158;2024-02-14T08:47:32;4.00;4.00;3.50
34176;PMS7003;20450;49.074;9.158;2024-02-14T08:49:59;6.25;6.25;5.00
34176;PMS7003;20450;49.074;9.158;2024-02-14T08:52:28;6.50;6.50;5.00
34176;PMS7003;20450;49.074;9.158;2024-02-14T08:54:56;9.75;8.00;6.25
34176;PMS7003;20450;49.074;9.158;2024-02-14T08:57:23;13.50;11.00;6.00
34176;PMS7003;20450;49.074;9.158;2024-02-14T08:59:50;5.00;3.75;3.00
34176;PMS7003;20450;49.074;9.158;2024-02-14T09:02:17;6.00;4.00;3.50
34176;PMS7003;20450;49.074;9.158;2024-02-14T09:04:45;2.50;2.50;1.50
34176;PMS7003;20450;49.074;9.158;2024-02-14T09:07:11;3.00;3.00;1.00
34176;PMS7003;20450;49.074;9.158;2024-02-14T09:09:39;6.00;3.75;3.00
34176;PMS7003;20450;49.074;9.158;2024-02-14T09:12:07;5.00;3.50;3.00
34176;PMS7003;20450;49.074;9.158;2024-02-14T09:14:34;1.00;1.00;1.00
34176;PMS7003;20450;49.074;9.158;2024-02-14T09:17:02;5.00;3.75;3.00
34176;PMS7003;20450;49.074;9.158;2024-02-14T09:19:29;4.50;4.00;3.50
34176;PMS7003;20450;49.074;9.158;2024-02-14T09:21:56;3.00;3.00;2.00
34176;PMS7003;20450;49.074;9.158;2024-02-14T09:24:23;4.50;4.50;3.75
34176;PMS7003;20450;49.074;9.158;2024-02-14T09:26:50;2.50;2.50;2.50
34176;PMS7003;20450;49.074;9.158;2024-02-14T09:29:18;9.25;7.50;5.75
34176;PMS7003;20450;49.074;9.158;2024-02-14T09:31:46;3.00;3.00;3.00
34176;PMS7003;20450;49.074;9.158;2024-02-14T09:34:12;4.50;3.25;3.00
34176;PMS7003;20450;49.074;9.158;2024-02-14T09:36:40;4.00;4.00;3.00
34176;PMS7003;20450;49.074;9.158;2024-02-14T09:39:07;9.50;4.00;3.75
34176;PMS7003;20450;49.074;9.158;2024-02-14T09:41:36;5.00;3.50;1.50
34176;PMS7003;20450;49.074;9.158;2024-02-14T09:44:06;3.00;3.00;1.00
34176;PMS7003;20450;49.074;9.158;2024-02-14T09:46:36;4.00;2.50;1.50
34176;PMS7003;20450;49.074;9.158;2024-02-14T09:49:03;3.75;3.00;3.00
34176;PMS7003;20450;49.074;9.158;2024-02-14T09:51:32;4.00;4.00;3.25
34176;PMS7003;20450;49.074;9.158;2024-02-14T09:54:00;5.00;3.25;3.00
34176;PMS7003;20450;49.074;9.158;2024-02-14T09:56:28;10.00;6.00;3.50
34176;PMS7003;20450;49.074;9.158;2024-02-14T09:58:56;4.00;3.00;1.00
34176;PMS7003;20450;49.074;9.158;2024-02-14T10:01:24;4.00;4.00;4.00
34176;PMS7003;20450;49.074;9.158;2024-02-14T10:03:54;5.75;4.00;3.75
34176;PMS7003;20450;49.074;9.158;2024-02-14T10:06:21;2.50;2.50;2.50
34176;PMS7003;20450;49.074;9.158;2024-02-14T10:08:49;0.00;0.00;0.00
34176;PMS7003;20450;49.074;9.158;2024-02-14T10:11:29;5.50;3.75;3.50
34176;PMS7003;20450;49.074;9.158;2024-02-14T10:13:57;6.00;3.00;1.50
34176;PMS7003;20450;49.074;9.158;2024-02-14T10:16:25;3.00;3.00;3.00
34176;PMS7003;20450;49.074;9.158;2024-02-14T10:18:54;3.50;3.00;1.00
34176;PMS7003;20450;49.074;9.158;2024-02-14T10:21:21;3.50;1.50;1.00
34176;PMS7003;20450;49.074;9.158;2024-02-14T10:23:50;3.75;3.75;3.50
34176;PMS7003;20450;49.074;9.158;2024-02-14T10:26:17;3.00;3.00;1.50
34176;PMS7003;20450;49.074;9.158;2024-02-14T10:28:45;2.50;2.50;2.00
34176;PMS7003;20450;49.074;9.158;2024-02-14T10:31:16;1.00;1.00;1.00
34176;PMS7003;20450;49.074;9.158;2024-02-14T10:33:43;4.00;3.00;1.00
34176;PMS7003;20450;49.074;9.158;2024-02-14T10:36:12;3.00;2.00;1.00
34176;PMS7003;20450;49.074;9.158;2024-02-14T10:38:39;0.67;0.67;0.67
34176;PMS7003;20450;49.074;9.158;2024-02-14T10:41:07;0.75;0.75;0.25
34176;PMS7003;20450;49.074;9.158;2024-02-14T10:43:37;1.00;1.00;0.67
34176;PMS7003;20450;49.074;9.158;2024-02-14T10:46:08;1.00;1.00;1.00
34176;PMS7003;20450;49.074;9.158;2024-02-14T10:48:45;1.00;1.00;1.00
34176;PMS7003;20450;49.074;9.158;2024-02-14T10:51:14;0.33;0.00;0.00
34176;PMS7003;20450;49.074;9.158;2024-02-14T10:53:44;1.00;1.00;0.75
34176;PMS7003;20450;49.074;9.158;2024-02-14T10:56:16;2.00;2.00;1.00
34176;PMS7003;20450;49.074;9.158;2024-02-14T10:58:45;1.00;1.00;0.75
34176;PMS7003;20450;49.074;9.158;2024-02-14T11:01:13;0.75;0.75;0.75
34176;PMS7003;20450;49.074;9.158;2024-02-14T11:03:42;0.00;0.00;0.00
34176;PMS7003;20450;49.074;9.158;2024-02-14T11:06:16;0.00;0.00;0.00
34176;PMS7003;20450;49.074;9.158;2024-02-14T11:08:56;0.00;0.00;0.00
34176;PMS7003;20450;49.074;9.158;2024-02-14T11:11:24;1.00;1.00;1.00
34176;PMS7003;20450;49.074;9.158;2024-02-14T11:13:56;1.25;0.50;0.00
34176;PMS7003;20450;49.074;9.158;2024-02-14T11:16:24;3.75;1.50;0.00
34176;PMS7003;20450;49.074;9.158;2024-02-14T11:18:53;1.00;1.00;1.00
34176;PMS7003;20450;49.074;9.158;2024-02-14T11:21:27;3.00;1.00;0.75
34176;PMS7003;20450;49.074;9.158;2024-02-14T11:23:55;0.00;0.00;0.00
34176;PMS7003;20450;49.074;9.158;2024-02-14T11:26:22;0.00;0.00;0.00
34176;PMS7003;20450;49.074;9.158;2024-02-14T11:28:59;0.00;0.00;0.00
34176;PMS7003;20450;49.074;9.158;2024-02-14T11:31:31;1.00;1.00;0.75
34176;PMS7003;20450;49.074;9.158;2024-02-14T11:34:02;0.25;0.25;0.00
34176;PMS7003;20450;49.074;9.158;2024-02-14T11:36:32;0.00;0.00;0.00
34176;PMS7003;20450;49.074;9.158;2024-02-14T11:39:02;0.75;0.75;0.75
34176;PMS7003;20450;49.074;9.158;2024-02-14T11:41:32;0.00;0.00;0.00
34176;PMS7003;20450;49.074;9.158;2024-02-14T11:44:00;0.75;0.75;0.75
34176;PMS7003;20450;49.074;9.158;2024-02-14T11:46:31;1.25;0.75;0.00
34176;PMS7003;20450;49.074;9.158;2024-02-14T11:48:58;0.75;0.75;0.50
34176;PMS7003;20450;49.074;9.158;2024-02-14T11:51:34;0.00;0.00;0.00
34176;PMS7003;20450;49.074;9.158;2024-02-14T11:54:02;0.00;0.00;0.00
34176;PMS7003;20450;49.074;9.158;2024-02-14T11:56:31;0.25;0.25;0.00
34176;PMS7003;20450;49.074;9.158;2024-02-14T11:59:00;0.00;0.00;0.00
34176;PMS7003;20450;49.074;9.158;2024-02-14T12:01:34;0.50;0.50;0.00
34176;PMS7003;20450;49.074;9.158;2024-02-14T12:04:02;1.75;0.00;0.00
34176;PMS7003;20450;49.074;9.158;2024-02-14T12:06:32;0.75;0.75;0.75
34176;PMS7003;20450;49.074;9.158;2024-02-14T12:09:04;2.00;0.00;0.00
34176;PMS7003;20450;49.074;9.158;2024-02-14T12:11:34;0.00;0.00;0.00
34176;PMS7003;20450;49.074;9.158;2024-02-14T12:14:07;0.00;0.00;0.00
34176;PMS7003;20450;49.074;9.158;2024-02-14T12:16:35;0.25;0.25;0.00
34176;PMS7003;20450;49.074;9.158;2024-02-14T12:19:03;1.00;1.00;1.00
34176;PMS7003;20450;49.074;9.158;2024-02-14T12:21:34;1.00;1.00;1.00
34176;PMS7003;20450;49.074;9.158;2024-02-14T12:24:03;0.75;0.00;0.00
34176;PMS7003;20450;49.074;9.158;2024-02-14T12:26:33;2.00;2.00;1.00
34176;PMS7003;20450;49.074;9.158;2024-02-14T12:29:04;0.50;0.50;0.25
34176;PMS7003;20450;49.074;9.158;2024-02-14T12:31:31;0.00;0.00;0.00
34176;PMS7003;20450;49.074;9.158;2024-02-14T12:33:59;0.00;0.00;0.00
34176;PMS7003;20450;49.074;9.158;2024-02-14T12:36:32;0.00;0.00;0.00
34176;PMS7003;20450;49.074;9.158;2024-02-14T12:39:02;0.00;0.00;0.00
34176;PMS7003;20450;49.074;9.158;2024-02-14T12:41:31;0.00;0.00;0.00
34176;PMS7003;20450;49.074;9.158;2024-02-14T12:43:58;0.00;0.00;0.00
34176;PMS7003;20450;49.074;9.158;2024-02-14T12:46:26;0.00;0.00;0.00
34176;PMS7003;20450;49.074;9.158;2024-02-14T12:48:53;0.00;0.00;0.00
34176;PMS7003;20450;49.074;9.158;2024-02-14T12:51:21;1.00;0.00;0.00
34176;PMS7003;20450;49.074;9.158;2024-02-14T12:53:52;0.00;0.00;0.00
34176;PMS7003;20450;49.074;9.158;2024-02-14T12:56:19;0.00;0.00;0.00
34176;PMS7003;20450;49.074;9.158;2024-02-14T12:58:47;0.75;0.00;0.00
34176;PMS7003;20450;49.074;9.158;2024-02-14T13:01:17;0.00;0.00;0.00
34176;PMS7003;20450;49.074;9.158;2024-02-14T13:03:45;0.00;0.00;0.00
34176;PMS7003;20450;49.074;9.158;2024-02-14T13:06:14;0.00;0.00;0.00
34176;PMS7003;20450;49.074;9.158;2024-02-14T13:08:41;0.00;0.00;0.00
34176;PMS7003;20450;49.074;9.158;2024-02-14T13:11:12;0.00;0.00;0.00
34176;PMS7003;20450;49.074;9.158;2024-02-14T13:13:39;1.00;1.00;0.25
34176;PMS7003;20450;49.074;9.158;2024-02-14T13:16:07;0.00;0.00;0.00
34176;PMS7003;20450;49.074;9.158;2024-02-14T13:18:34;0.00;0.00;0.00
34176;PMS7003;20450;49.074;9.158;2024-02-14T13:21:01;0.00;0.00;0.00
34176;PMS7003;20450;49.074;9.158;2024-02-14T13:23:29;1.50;0.00;0.00
34176;PMS7003;20450;49.074;9.158;2024-02-14T13:25:57;0.00;0.00;0.00
34176;PMS7003;20450;49.074;9.158;2024-02-14T13:28:25;1.00;1.00;0.75
34176;PMS7003;20450;49.074;9.158;2024-02-14T13:30:52;1.00;1.00;0.25
34176;PMS7003;20450;49.074;9.158;2024-02-14T13:33:22;0.00;0.00;0.00
34176;PMS7003;20450;49.074;9.158;2024-02-14T13:35:50;0.50;0.50;0.50
34176;PMS7003;20450;49.074;9.158;2024-02-14T13:38:18;0.00;0.00;0.00
34176;PMS7003;20450;49.074;9.158;2024-02-14T13:40:45;0.50;0.50;0.50
34176;PMS7003;20450;49.074;9.158;2024-02-14T13:43:12;0.00;0.00;0.00
34176;PMS7003;20450;49.074;9.158;2024-02-14T13:45:45;2.00;0.75;0.25
34176;PMS7003;20450;49.074;9.158;2024-02-14T13:48:13;0.75;0.75;0.75
34176;PMS7003;20450;49.074;9.158;2024-02-14T13:50:41;0.00;0.00;0.00
34176;PMS7003;20450;49.074;9.158;2024-02-14T13:53:08;0.00;0.00;0.00
34176;PMS7003;20450;49.074;9.158;2024-02-14T13:55:36;0.00;0.00;0.00
34176;PMS7003;20450;49.074;9.158;2024-02-14T13:58:04;0.00;0.00;0.00
34176;PMS7003;20450;49.074;9.158;2024-02-14T14:00:31;1.00;0.00;0.00
34176;PMS7003;20450;49.074;9.158;2024-02-14T14:02:59;0.00;0.00;0.00
34176;PMS7003;20450;49.074;9.158;2024-02-14T14:05:27;0.50;0.00;0.00
34176;PMS7003;20450;49.074;9.158;2024-02-14T14:07:54;6.50;4.00;2.50
34176;PMS7003;20450;49.074;9.158;2024-02-14T14:10:25;3.00;0.00;0.00
34176;PMS7003;20450;49.074;9.158;2024-02-14T14:12:52;0.50;0.50;0.00
34176;PMS7003;20450;49.074;9.158;2024-02-14T14:15:19;1.00;0.00;0.00
34176;PMS7003;20450;49.074;9.158;2024-02-14T14:17:46;0.00;0.00;0.00
34176;PMS7003;20450;49.074;9.158;2024-02-14T14:20:15;0.00;0.00;0.00
34176;PMS7003;20450;49.074;9.158;2024-02-14T14:22:42;0.50;0.00;0.00
34176;PMS7003;20450;49.074;9.158;2024-02-14T14:25:09;0.00;0.00;0.00